Main page
METAR-TAF:

METAR-TAF

Airports :

Caracas, Venezuela

Simón Bolívar International Airport

latitude: 10-36N, longitude: 066-59W, elevation: 43 m

Current weather observation

The report was made 1 hour and 9 minutes ago, at 22:00 UTC
Wind 5 kt from the Northwest
Temperature 31°C
Humidity 66%
Pressure 1008 hPa
Visibility 10 km or more
Scattered clouds at a height of 1600 ft

METAR: SVMI 232200Z 31005KT 9999 SCT016 31/24 Q1008

Time: 19:09 (23:09 UTC)

Forecast

The report was made 7 hours and 9 minutes ago, at 16:00 UTC
Forecast valid from 23 at 18 UTC to 24 at 18 UTC
Wind 10 kt from the East/Northeast
Visibility 10 km or more
Scattered clouds at a height of 1600 ft
Broken clouds at a height of 10000 ft
Becoming
from 23 at 18 UTC to 23 at 22 UTC
Wind 10 kt from the Northeast
Few clouds at a height of 1300 ft

TAF: SVMI 231600Z 2318/2418 07010KT 9999 SCT016 BKN100 TX34/18Z TN25/09Z BECMG 2318/2322 05010KT FEW013

Weather observations and forecasts of more than 4000 airports (METAR and TAF reports).

The available stations are represented by yellow and red dots on the map.

Hover mouse over dot to see the name of the station.

Then click to see weather observations and forecasts.

To change the map : click on the green buttons with a black cross to zoom in, on the green button with a dash to zoom out, or on the green arrows for adjacent maps.


METAR-TAF: